Current Weather

Tcnl Rafael Pabon

Tcnl Rafael Pabon, Bolivia (SLVM)

Report from: Thursday, April 18, 2024 5:00 PM -04
Current time: Friday, April 19, 2024 5:42 AM -04

Nearby weather – Weather history – Daily summaries
Weather forecast

Temperature27.0°C (80.6°F)
Heat index28.0°C (82.3°F)
Dew point17.0°C (62.6°F)
Winds Calm
Visibility6.2 mi. (10 km)
Clouds Ceiling: Broken clouds 8,000 ft. (2,438 m)
Altimeter30.00 in.Hg (1016 mB)
Relative humidity54 %
Density altitude1,557 ft. (475 m)
Flight conditions Visual Meteorological Conditions
Raw dataSLVM 182100Z 00000KT 9999 BKN080 27/17 Q1016
An error has occurred. This application may no longer respond until reloaded. Reload 🗙